createdAt,value
2018-03-07T00:01:41.310Z,75.70
2018-03-07T00:04:09.472Z,79.00
2018-03-07T00:06:37.560Z,76.33
2018-03-07T00:09:05.960Z,78.00
2018-03-07T00:11:41.361Z,72.53
2018-03-07T00:14:09.498Z,77.57
2018-03-07T00:16:38.389Z,79.77
2018-03-07T00:19:11.594Z,81.67
2018-03-07T00:21:42.986Z,81.13
2018-03-07T00:24:11.197Z,77.10
2018-03-07T00:26:39.397Z,83.00
2018-03-07T00:29:07.816Z,80.37
2018-03-07T00:31:36.628Z,72.63
2018-03-07T00:34:04.824Z,81.70
2018-03-07T00:36:33.055Z,85.27
2018-03-07T00:39:07.300Z,80.27
2018-03-07T00:41:42.579Z,82.60
2018-03-07T00:44:10.723Z,83.87
2018-03-07T00:46:38.858Z,83.77
2018-03-07T00:49:07.164Z,89.77
2018-03-07T00:51:35.506Z,82.13
2018-03-07T00:54:09.396Z,83.20
2018-03-07T00:56:37.534Z,79.40
2018-03-07T00:59:05.663Z,82.50
2018-03-07T01:01:33.963Z,83.13
2018-03-07T01:04:02.128Z,84.67
2018-03-07T01:06:30.268Z,89.80
2018-03-07T01:08:58.499Z,84.73
2018-03-07T01:11:27.437Z,85.53
2018-03-07T01:13:55.675Z,82.63
2018-03-07T01:16:23.831Z,89.10
2018-03-07T01:18:52.122Z,87.30
2018-03-07T01:21:20.357Z,81.90
2018-03-07T01:23:49.150Z,95.50
2018-03-07T01:26:24.836Z,82.57
2018-03-07T01:28:53.018Z,83.17
2018-03-07T01:31:21.190Z,84.40
2018-03-07T01:33:49.304Z,88.17
2018-03-07T01:36:17.474Z,84.47
2018-03-07T01:38:45.570Z,85.47
2018-03-07T01:41:13.803Z,80.47
2018-03-07T01:43:41.923Z,89.60
2018-03-07T01:46:10.106Z,94.83
2018-03-07T01:48:38.373Z,84.60
2018-03-07T01:51:07.461Z,84.53
2018-03-07T01:53:40.797Z,89.37
2018-03-07T01:56:10.392Z,86.47
2018-03-07T01:58:38.511Z,85.10
2018-03-07T02:01:06.717Z,81.37
2018-03-07T02:03:41.919Z,84.23
2018-03-07T02:06:10.093Z,82.57
2018-03-07T02:08:38.261Z,83.93
2018-03-07T02:11:06.640Z,88.90
2018-03-07T02:13:38.042Z,82.93
2018-03-07T02:16:08.276Z,85.90
2018-03-07T02:18:37.201Z,83.87
2018-03-07T02:21:05.425Z,85.93
2018-03-07T02:23:33.731Z,83.30
2018-03-07T02:26:01.951Z,83.83
2018-03-07T02:28:31.779Z,87.90
2018-03-07T02:31:00.140Z,87.10
2018-03-07T02:33:28.388Z,85.63
2018-03-07T02:35:57.287Z,84.03
2018-03-07T02:38:26.141Z,85.70
2018-03-07T02:40:54.273Z,81.53
2018-03-07T02:43:22.476Z,80.43
2018-03-07T02:45:50.617Z,86.70
2018-03-07T02:48:18.800Z,83.83
2018-03-07T02:50:52.201Z,83.30
2018-03-07T02:53:21.267Z,84.90
2018-03-07T02:55:49.427Z,89.43
2018-03-07T02:58:17.540Z,92.57
2018-03-07T03:00:45.737Z,84.40
2018-03-07T03:03:14.864Z,87.23
2018-03-07T03:05:43.668Z,89.73
2018-03-07T03:08:11.957Z,84.20
2018-03-07T03:13:14.791Z,85.20
2018-03-07T03:15:43.737Z,82.40
2018-03-07T03:18:13.784Z,83.47
2018-03-07T03:20:42.769Z,88.80
2018-03-07T03:23:10.888Z,89.70
2018-03-07T03:25:39.090Z,80.57
2018-03-07T03:28:07.244Z,90.83
2018-03-07T03:30:35.446Z,87.93
2018-03-07T03:33:10.434Z,83.73
2018-03-07T03:35:39.722Z,85.53
2018-03-07T03:38:08.080Z,82.00
2018-03-07T03:40:38.536Z,84.13
2018-03-07T03:43:08.243Z,83.30
2018-03-07T03:45:36.569Z,91.40
2018-03-07T03:48:05.516Z,85.90
2018-03-07T03:50:33.745Z,88.80
2018-03-07T03:53:03.220Z,93.03
2018-03-07T03:55:32.576Z,93.03
2018-03-07T03:58:01.246Z,78.87
2018-03-07T04:00:30.516Z,87.97
2018-03-07T04:02:58.671Z,85.97
2018-03-07T04:05:26.860Z,89.67
2018-03-07T04:07:55.764Z,89.20
2018-03-07T04:10:26.257Z,84.37
2018-03-07T04:12:54.469Z,82.50
2018-03-07T04:15:22.713Z,94.53
2018-03-07T04:17:50.850Z,90.60
2018-03-07T04:20:18.985Z,88.83
2018-03-07T04:22:47.240Z,87.07
2018-03-07T04:25:36.262Z,90.43
2018-03-07T04:28:11.639Z,90.13
2018-03-07T04:30:39.914Z,88.13
2018-03-07T04:33:09.048Z,85.07
2018-03-07T04:35:37.797Z,87.50
2018-03-07T04:38:06.786Z,82.87
2018-03-07T04:40:34.926Z,95.57
2018-03-07T04:43:03.102Z,87.53
2018-03-07T04:45:34.241Z,89.53
2018-03-07T04:48:02.957Z,93.70
2018-03-07T04:50:31.089Z,89.60
2018-03-07T04:53:00.082Z,89.93
2018-03-07T04:55:28.448Z,96.90
2018-03-07T04:57:56.586Z,90.80
2018-03-07T05:00:25.798Z,93.63
2018-03-07T05:02:55.449Z,91.87
2018-03-07T05:05:27.411Z,91.33
2018-03-07T05:07:56.405Z,93.70
2018-03-07T05:10:24.568Z,90.37
2018-03-07T05:12:53.461Z,89.67
2018-03-07T05:15:22.571Z,92.70
2018-03-07T05:17:50.748Z,89.53
2018-03-07T05:20:19.274Z,102.63
2018-03-07T05:22:47.513Z,89.90
2018-03-07T05:25:15.688Z,87.60
2018-03-07T05:27:43.935Z,101.67
2018-03-07T05:30:12.244Z,90.40
2018-03-07T05:32:40.396Z,93.60
2018-03-07T05:35:08.662Z,100.67
2018-03-07T05:37:37.674Z,95.00
2018-03-07T05:40:06.293Z,96.63
2018-03-07T05:42:34.540Z,96.17
2018-03-07T05:45:02.713Z,97.87
2018-03-07T05:47:30.944Z,99.27
2018-03-07T05:49:59.135Z,96.20
2018-03-07T05:52:27.299Z,96.03
2018-03-07T05:54:55.556Z,98.27
2018-03-07T05:57:23.787Z,92.90
2018-03-07T05:59:52.671Z,93.03
2018-03-07T06:02:21.582Z,100.47
2018-03-07T06:04:49.775Z,95.77
2018-03-07T06:07:17.886Z,95.60
2018-03-07T06:09:46.108Z,99.13
2018-03-07T06:12:14.313Z,99.23
2018-03-07T06:14:42.508Z,99.07
2018-03-07T06:17:11.508Z,91.10
2018-03-07T06:19:40.992Z,101.73
2018-03-07T06:22:09.992Z,88.13
2018-03-07T06:24:40.126Z,95.87
2018-03-07T06:27:09.156Z,93.53
2018-03-07T06:29:37.771Z,95.57
2018-03-07T06:32:06.816Z,107.50
2018-03-07T06:34:35.009Z,102.87
2018-03-07T06:37:03.227Z,100.03
2018-03-07T06:39:35.142Z,95.90
2018-03-07T06:42:03.355Z,99.20
2018-03-07T06:44:31.469Z,97.13
2018-03-07T06:47:11.895Z,105.17
2018-03-07T06:49:40.936Z,105.83
2018-03-07T06:52:10.023Z,107.33
2018-03-07T06:54:38.911Z,102.93
2018-03-07T06:57:07.147Z,98.47
2018-03-07T06:59:36.072Z,107.57
2018-03-07T07:02:05.169Z,113.23
2018-03-07T07:04:33.284Z,109.10
2018-03-07T07:07:01.521Z,105.80
2018-03-07T07:09:31.790Z,115.17
2018-03-07T07:12:06.131Z,117.97
2018-03-07T07:14:34.250Z,112.20
2018-03-07T07:17:04.247Z,117.03
2018-03-07T07:19:33.145Z,117.67
2018-03-07T07:22:01.985Z,113.43
2018-03-07T07:24:30.657Z,109.00
2018-03-07T07:27:00.546Z,109.90
2018-03-07T07:29:28.868Z,110.60
2018-03-07T07:31:57.413Z,118.97
2018-03-07T07:34:26.225Z,122.30
2018-03-07T07:36:54.733Z,115.73
2018-03-07T07:39:24.956Z,117.83
2018-03-07T07:41:53.939Z,112.97
2018-03-07T07:44:22.796Z,125.50
2018-03-07T07:46:54.292Z,123.93
2018-03-07T07:49:26.655Z,121.50
2018-03-07T07:51:58.653Z,125.43
2018-03-07T07:54:28.655Z,129.70
2018-03-07T07:56:56.868Z,124.80
2018-03-07T07:59:25.691Z,124.77
2018-03-07T08:01:53.885Z,128.17
2018-03-07T08:04:22.311Z,135.13
2018-03-07T08:06:51.399Z,123.27
2018-03-07T08:12:14.987Z,135.93
2018-03-07T08:14:43.603Z,139.87
2018-03-07T08:17:13.996Z,123.23
2018-03-07T08:19:42.918Z,128.33
2018-03-07T08:22:11.972Z,115.40
2018-03-07T08:24:43.509Z,116.77
2018-03-07T08:27:12.562Z,128.37
2018-03-07T08:29:42.761Z,126.73
2018-03-07T08:32:10.893Z,127.20
2018-03-07T08:34:42.880Z,125.20
2018-03-07T08:37:11.391Z,123.30
2018-03-07T08:39:41.467Z,124.30
2018-03-07T08:42:10.458Z,125.30
2018-03-07T08:44:40.308Z,133.60
2018-03-07T08:47:08.773Z,120.93
2018-03-07T08:49:39.806Z,114.90
2018-03-07T08:52:08.829Z,122.10
2018-03-07T08:54:37.039Z,131.63
2018-03-07T08:57:06.180Z,124.43
2018-03-07T08:59:35.326Z,124.20
2018-03-07T09:02:03.562Z,127.67
2018-03-07T09:04:36.967Z,134.17
2018-03-07T09:07:06.203Z,133.00
2018-03-07T09:09:34.386Z,134.47
2018-03-07T09:12:02.528Z,124.43
2018-03-07T09:14:30.721Z,122.60
2018-03-07T09:16:58.867Z,122.40
2018-03-07T09:19:27.012Z,114.47
2018-03-07T09:21:56.613Z,123.20
2018-03-07T09:24:30.695Z,126.70
2018-03-07T09:26:58.918Z,118.63
2018-03-07T09:29:32.501Z,124.97
2018-03-07T09:32:00.672Z,129.47
2018-03-07T09:34:28.786Z,125.13
2018-03-07T09:36:57.023Z,118.67
2018-03-07T09:39:25.224Z,115.90
2018-03-07T09:41:53.385Z,120.33
2018-03-07T09:44:21.647Z,114.00
2018-03-07T09:46:49.809Z,116.93
2018-03-07T09:49:18.004Z,121.33
2018-03-07T09:51:46.170Z,115.23
2018-03-07T09:54:17.446Z,119.43
2018-03-07T09:56:45.637Z,118.33
2018-03-07T09:59:14.763Z,109.27
2018-03-07T10:01:42.993Z,114.07
2018-03-07T10:04:11.296Z,112.37
2018-03-07T10:06:40.249Z,112.60
2018-03-07T10:09:08.409Z,123.47
2018-03-07T10:11:36.583Z,124.27
2018-03-07T10:14:05.737Z,120.33
2018-03-07T10:16:33.914Z,111.10
2018-03-07T10:19:02.039Z,117.83
2018-03-07T10:21:33.180Z,119.40
2018-03-07T10:24:01.352Z,114.10
2018-03-07T10:26:29.597Z,111.73
2018-03-07T10:28:57.958Z,104.33
2018-03-07T10:31:26.871Z,109.97
2018-03-07T10:33:56.009Z,104.77
2018-03-07T10:36:24.186Z,107.17
2018-03-07T10:38:52.479Z,105.97
2018-03-07T10:41:20.744Z,111.60
2018-03-07T10:43:49.016Z,106.77
2018-03-07T10:46:18.472Z,104.80
2018-03-07T10:48:46.999Z,103.43
2018-03-07T10:51:15.165Z,112.30
2018-03-07T10:53:43.623Z,105.30
2018-03-07T10:56:13.832Z,89.30
2018-03-07T10:58:42.177Z,103.03
2018-03-07T11:01:11.303Z,105.93
2018-03-07T11:03:39.576Z,101.17
2018-03-07T11:06:13.916Z,98.57
2018-03-07T11:08:42.158Z,100.37
2018-03-07T11:16:54.745Z,101.50
2018-03-07T11:19:33.242Z,102.60
2018-03-07T11:22:01.589Z,98.83
2018-03-07T11:24:29.941Z,97.80
2018-03-07T11:29:58.335Z,98.87
2018-03-07T11:32:27.520Z,93.40
2018-03-07T11:34:59.883Z,89.80
2018-03-07T11:37:28.125Z,92.10
2018-03-07T11:39:56.632Z,92.33
2018-03-07T11:42:24.905Z,86.47
2018-03-07T11:53:23.359Z,83.17
2018-03-07T11:56:11.414Z,81.43
2018-03-07T11:58:39.914Z,78.77
2018-03-07T12:07:27.670Z,75.00
2018-03-07T12:09:57.082Z,77.80
2018-03-07T12:15:20.513Z,85.80
2018-03-07T12:17:49.029Z,78.00
2018-03-07T12:23:31.547Z,80.40
2018-03-07T12:26:00.711Z,86.27
2018-03-07T12:28:31.010Z,79.17
2018-03-07T12:30:59.615Z,78.20
2018-03-07T12:33:36.327Z,79.00
2018-03-07T12:36:15.388Z,83.03
2018-03-07T12:39:00.256Z,77.40
2018-03-07T12:41:28.462Z,75.63
2018-03-07T12:47:12.049Z,77.10
2018-03-07T12:49:43.003Z,80.10
2018-03-07T12:52:13.473Z,74.43
2018-03-07T12:54:42.479Z,74.97
2018-03-07T12:57:13.976Z,80.27
2018-03-07T12:59:43.084Z,86.10
2018-03-07T13:02:14.173Z,84.77
2018-03-07T13:04:42.606Z,78.00
2018-03-07T13:07:11.336Z,71.63
2018-03-07T13:09:39.512Z,81.33
2018-03-07T13:14:40.973Z,71.73
2018-03-07T13:17:09.161Z,74.53
2018-03-07T13:19:44.557Z,74.10
2018-03-07T13:22:12.758Z,76.87
2018-03-07T13:24:42.860Z,73.60
2018-03-07T13:27:12.693Z,72.50
2018-03-07T13:29:41.497Z,69.50
2018-03-07T13:32:09.713Z,74.50
2018-03-07T13:34:38.408Z,74.13
2018-03-07T13:37:13.052Z,74.93
2018-03-07T13:39:41.631Z,71.13
2018-03-07T13:44:42.760Z,75.70
2018-03-07T13:47:11.999Z,78.43
2018-03-07T13:52:12.883Z,77.07
2018-03-07T13:54:41.501Z,72.20
2018-03-07T13:57:10.699Z,71.23
2018-03-07T13:59:38.944Z,74.33
2018-03-07T14:02:07.585Z,70.70
2018-03-07T14:07:17.700Z,72.97
2018-03-07T14:09:46.082Z,69.47
2018-03-07T14:12:15.268Z,70.17
2018-03-07T14:14:44.556Z,69.93
2018-03-07T14:17:13.227Z,64.30
2018-03-07T14:19:41.378Z,64.70
2018-03-07T14:22:10.317Z,65.90
2018-03-07T14:24:38.604Z,60.57
2018-03-07T14:29:40.176Z,66.83
2018-03-07T14:32:11.043Z,64.37
2018-03-07T14:34:40.481Z,63.97
2018-03-07T14:37:08.848Z,63.43
2018-03-07T14:42:09.968Z,67.13
2018-03-07T14:44:38.193Z,68.00
2018-03-07T14:47:06.469Z,65.97
2018-03-07T14:49:35.667Z,75.27
2018-03-07T14:52:10.747Z,66.87
2018-03-07T14:54:38.955Z,68.17
2018-03-07T14:57:07.175Z,63.20
2018-03-07T14:59:36.392Z,67.90
2018-03-07T15:04:37.017Z,66.43
2018-03-07T15:07:05.217Z,70.07
2018-03-07T15:09:33.582Z,62.93
2018-03-07T15:12:12.157Z,63.50
2018-03-07T15:14:40.476Z,64.33
2018-03-07T15:17:13.577Z,67.40
2018-03-07T15:19:43.054Z,61.67
2018-03-07T15:22:13.596Z,64.60
2018-03-07T15:24:42.684Z,64.77
2018-03-07T15:27:11.767Z,66.73
2018-03-07T15:29:39.894Z,64.80
2018-03-07T15:32:15.883Z,56.23
2018-03-07T15:34:55.304Z,65.47
2018-03-07T15:37:25.419Z,59.97
2018-03-07T15:42:26.077Z,66.93
2018-03-07T15:44:58.551Z,61.77
2018-03-07T15:47:27.820Z,63.13
2018-03-07T15:52:28.397Z,65.03
2018-03-07T15:54:56.722Z,59.20
2018-03-07T15:57:29.829Z,53.77
2018-03-07T16:02:59.078Z,54.70
2018-03-07T16:05:27.286Z,55.53
2018-03-07T16:07:58.940Z,54.80
2018-03-07T16:10:41.994Z,54.40
2018-03-07T16:13:12.125Z,51.57
2018-03-07T16:15:40.901Z,56.30
2018-03-07T16:18:16.812Z,54.47
2018-03-07T16:20:47.510Z,52.83
2018-03-07T16:23:29.606Z,56.43
2018-03-07T16:26:01.419Z,58.87
2018-03-07T16:28:31.402Z,54.50
2018-03-07T16:30:59.659Z,52.40
2018-03-07T16:33:38.761Z,50.23
2018-03-07T16:36:09.832Z,53.10
2018-03-07T16:38:39.182Z,53.67
2018-03-07T16:41:09.503Z,55.23
2018-03-07T16:43:37.870Z,56.20
2018-03-07T16:46:06.490Z,56.20
2018-03-07T16:48:37.269Z,57.30
2018-03-07T16:51:11.715Z,55.30
2018-03-07T16:53:40.153Z,55.80
2018-03-07T16:56:09.047Z,52.00
2018-03-07T16:58:37.193Z,47.30
2018-03-07T17:01:06.238Z,46.83
2018-03-07T17:03:48.950Z,45.80
2018-03-07T17:09:13.815Z,42.43
2018-03-07T17:11:41.958Z,41.90
2018-03-07T17:14:10.056Z,42.57
2018-03-07T17:19:29.467Z,44.63
2018-03-07T17:21:57.930Z,42.00
2018-03-07T17:24:45.161Z,43.30
2018-03-07T17:27:13.259Z,45.73
2018-03-07T17:29:43.009Z,50.60
2018-03-07T17:32:12.565Z,42.93
2018-03-07T17:34:42.430Z,47.97
2018-03-07T17:37:12.916Z,44.53
2018-03-07T17:39:41.952Z,41.30
2018-03-07T17:42:10.094Z,45.30
2018-03-07T17:44:38.428Z,46.77
2018-03-07T17:47:06.879Z,46.90
2018-03-07T17:49:39.523Z,45.57
2018-03-07T17:52:07.845Z,49.10
2018-03-07T17:54:36.958Z,47.67
2018-03-07T17:57:05.141Z,45.50
2018-03-07T17:59:33.392Z,44.43
2018-03-07T18:02:05.526Z,49.50
2018-03-07T18:04:43.412Z,45.03
2018-03-07T18:07:11.695Z,45.90
2018-03-07T18:09:39.840Z,56.03
2018-03-07T18:12:09.162Z,70.43
2018-03-07T18:14:38.377Z,78.67
2018-03-07T18:17:06.576Z,73.60
2018-03-07T18:19:49.017Z,67.90
2018-03-07T18:22:18.461Z,66.20
2018-03-07T18:24:46.683Z,64.43
2018-03-07T18:27:15.785Z,61.80
2018-03-07T18:29:44.115Z,58.30
2018-03-07T18:32:12.321Z,56.07
2018-03-07T18:34:40.601Z,49.83
2018-03-07T18:37:08.810Z,49.33
2018-03-07T18:39:37.015Z,49.83
2018-03-07T18:42:05.248Z,52.50
2018-03-07T18:44:34.776Z,48.80
2018-03-07T18:47:13.827Z,48.07
2018-03-07T18:49:42.805Z,45.47
2018-03-07T18:52:11.030Z,49.90
2018-03-07T18:54:39.210Z,48.17
2018-03-07T18:57:07.347Z,42.17
2018-03-07T18:59:35.846Z,37.73
2018-03-07T19:02:04.009Z,34.53
2018-03-07T19:04:32.206Z,38.67
2018-03-07T19:07:00.592Z,38.70
2018-03-07T19:09:29.575Z,36.50
2018-03-07T19:11:58.626Z,36.90
2018-03-07T19:14:26.848Z,34.40
2018-03-07T19:16:55.036Z,39.53
2018-03-07T19:19:24.326Z,36.70
2018-03-07T19:21:52.764Z,32.73
2018-03-07T19:24:21.549Z,37.20
2018-03-07T19:26:49.881Z,35.77
2018-03-07T19:29:19.020Z,35.93
2018-03-07T19:31:47.266Z,36.17
2018-03-07T19:34:15.580Z,34.33
2018-03-07T19:36:44.711Z,35.03
2018-03-07T19:39:13.003Z,32.63
2018-03-07T19:41:41.427Z,36.27
2018-03-07T19:44:09.826Z,32.40
2018-03-07T19:46:38.605Z,31.00
2018-03-07T19:49:07.847Z,34.17
2018-03-07T19:51:40.932Z,34.00
2018-03-07T19:54:09.135Z,34.50
2018-03-07T19:56:37.361Z,33.97
2018-03-07T19:59:12.662Z,35.17
2018-03-07T20:01:41.959Z,36.20
2018-03-07T20:04:10.150Z,35.77
2018-03-07T20:06:38.279Z,34.67
2018-03-07T20:09:06.372Z,35.87
2018-03-07T20:11:34.476Z,35.77
2018-03-07T20:14:02.629Z,36.47
2018-03-07T20:16:31.552Z,35.07
2018-03-07T20:18:59.659Z,41.77
2018-03-07T20:21:27.892Z,37.23
2018-03-07T20:23:58.573Z,40.00
2018-03-07T20:26:26.765Z,39.80
2018-03-07T20:29:00.696Z,38.80
2018-03-07T20:31:28.860Z,41.87
2018-03-07T20:33:56.983Z,41.27
2018-03-07T20:36:25.093Z,42.37
2018-03-07T20:38:53.200Z,43.90
2018-03-07T20:41:21.340Z,41.37
2018-03-07T20:43:49.432Z,40.23
2018-03-07T20:46:18.304Z,39.93
2018-03-07T20:48:55.021Z,40.53
2018-03-07T20:51:23.141Z,41.70
2018-03-07T20:53:51.238Z,39.77
2018-03-07T20:56:19.411Z,39.27
2018-03-07T20:58:47.633Z,39.20
2018-03-07T21:01:16.493Z,37.37
2018-03-07T21:03:44.719Z,33.20
2018-03-07T21:06:12.960Z,36.40
2018-03-07T21:08:41.102Z,37.87
2018-03-07T21:11:10.475Z,38.07
2018-03-07T21:13:38.576Z,37.47
2018-03-07T21:16:06.801Z,37.27
2018-03-07T21:18:46.004Z,32.70
2018-03-07T21:21:14.107Z,38.77
2018-03-07T21:23:42.306Z,39.30
2018-03-07T21:26:10.395Z,40.37
2018-03-07T21:28:38.568Z,39.20
2018-03-07T21:31:07.513Z,43.73
2018-03-07T21:33:36.383Z,43.57
2018-03-07T21:36:04.524Z,49.00
2018-03-07T21:38:32.656Z,46.23
2018-03-07T21:41:00.816Z,44.90
2018-03-07T21:43:32.052Z,45.87
2018-03-07T21:46:00.310Z,46.10
2018-03-07T21:48:28.411Z,48.37
2018-03-07T21:50:56.553Z,46.47
2018-03-07T21:53:24.728Z,41.70
2018-03-07T21:55:52.871Z,46.43
2018-03-07T21:58:28.924Z,49.20
2018-03-07T22:00:57.881Z,47.10
2018-03-07T22:03:26.021Z,44.63
2018-03-07T22:05:54.893Z,49.20
2018-03-07T22:08:23.030Z,48.07
2018-03-07T22:11:04.492Z,48.67
2018-03-07T22:13:32.593Z,42.67
2018-03-07T22:16:00.737Z,47.50
2018-03-07T22:18:28.946Z,45.83
2018-03-07T22:20:57.812Z,45.93
2018-03-07T22:23:25.938Z,49.77
2018-03-07T22:25:54.840Z,47.33
2018-03-07T22:28:23.853Z,47.93
2018-03-07T22:30:51.989Z,51.63
2018-03-07T22:33:20.140Z,48.63
2018-03-07T22:35:48.321Z,48.73
2018-03-07T22:38:16.556Z,52.70
2018-03-07T22:40:44.734Z,52.60
2018-03-07T22:43:12.943Z,53.13
2018-03-07T22:45:41.175Z,48.00
2018-03-07T22:48:09.322Z,50.40
2018-03-07T22:50:45.488Z,53.10
2018-03-07T22:53:13.584Z,53.20
2018-03-07T22:55:41.695Z,51.30
2018-03-07T22:58:09.891Z,52.60
2018-03-07T23:00:43.572Z,51.57
2018-03-07T23:03:12.522Z,53.67
2018-03-07T23:05:43.977Z,56.07
2018-03-07T23:08:12.098Z,57.60
2018-03-07T23:10:40.240Z,55.17
2018-03-07T23:13:08.336Z,51.00
2018-03-07T23:15:36.536Z,56.23
2018-03-07T23:18:23.247Z,59.70
2018-03-07T23:20:51.436Z,61.47
2018-03-07T23:23:23.469Z,55.80
2018-03-07T23:25:51.611Z,60.70
2018-03-07T23:28:20.740Z,56.50
2018-03-07T23:30:48.953Z,61.50
2018-03-07T23:33:17.801Z,61.47
2018-03-07T23:35:51.604Z,62.77
2018-03-07T23:38:19.724Z,64.87
2018-03-07T23:40:47.911Z,68.00
2018-03-07T23:43:16.067Z,63.37
2018-03-07T23:45:44.160Z,65.93
2018-03-07T23:48:12.277Z,75.00
2018-03-07T23:50:41.492Z,67.83
2018-03-07T23:53:09.675Z,72.87
2018-03-07T23:55:37.771Z,69.70
2018-03-07T23:58:06.699Z,70.43
